createdAt,value
2022-12-29T00:01:03.892Z,99624.53
2022-12-29T00:03:32.052Z,99620.66
2022-12-29T00:06:00.211Z,99624.09
2022-12-29T00:08:40.377Z,99611.53
2022-12-29T00:11:11.432Z,99610.47
2022-12-29T00:13:56.958Z,99613.06
2022-12-29T00:16:25.553Z,99599.44
2022-12-29T00:18:53.791Z,99608.13
2022-12-29T00:21:40.855Z,99600.81
2022-12-29T00:24:31.376Z,99599.75
2022-12-29T00:27:28.706Z,99585.28
2022-12-29T00:30:16.570Z,99588.72
2022-12-29T00:33:02.255Z,99594.72
2022-12-29T00:35:32.146Z,99584.63
2022-12-29T00:38:20.997Z,99589.00
2022-12-29T00:41:06.465Z,99580.78
2022-12-29T00:43:54.344Z,99585.91
2022-12-29T00:46:22.558Z,99579.47
2022-12-29T00:49:07.871Z,99567.66
2022-12-29T00:51:35.950Z,99571.00
2022-12-29T00:54:04.053Z,99576.13
2022-12-29T00:56:32.150Z,99574.19
2022-12-29T00:59:03.565Z,99567.00
2022-12-29T01:01:32.199Z,99572.13
2022-12-29T01:04:04.023Z,99565.72
2022-12-29T01:06:33.137Z,99561.22
2022-12-29T01:09:18.459Z,99558.28
2022-12-29T01:11:46.553Z,99558.19
2022-12-29T01:14:16.013Z,99555.38
2022-12-29T01:16:46.507Z,99558.81
2022-12-29T01:19:15.847Z,99560.53
2022-12-29T01:21:43.977Z,99552.34
2022-12-29T01:24:12.057Z,99552.28
2022-12-29T01:26:40.123Z,99546.78
2022-12-29T01:29:08.245Z,99546.66
2022-12-29T01:31:38.002Z,99540.31
2022-12-29T01:34:06.581Z,99538.38
2022-12-29T01:36:35.331Z,99535.47
2022-12-29T01:39:03.589Z,99537.19
2022-12-29T01:41:32.443Z,99535.25
2022-12-29T01:44:02.088Z,99530.63
2022-12-29T01:46:33.539Z,99528.69
2022-12-29T01:49:10.642Z,99532.13
2022-12-29T01:51:41.108Z,99523.09
2022-12-29T01:54:12.058Z,99518.50
2022-12-29T01:56:40.444Z,99519.34
2022-12-29T01:59:13.331Z,99506.66
2022-12-29T02:01:42.769Z,99512.03
2022-12-29T02:04:14.073Z,99502.91
2022-12-29T02:06:47.393Z,99498.28
2022-12-29T02:09:15.449Z,99492.78
2022-12-29T02:11:43.554Z,99480.09
2022-12-29T02:14:12.831Z,99482.66
2022-12-29T02:16:53.072Z,99482.44
2022-12-29T02:19:51.288Z,99478.69
2022-12-29T02:22:28.296Z,99467.81
2022-12-29T02:25:26.387Z,99468.66
2022-12-29T02:28:00.568Z,99455.97
2022-12-29T02:30:40.364Z,99465.88
2022-12-29T02:33:15.466Z,99463.19
2022-12-29T02:35:51.029Z,99459.50
2022-12-29T02:38:25.390Z,99470.38
2022-12-29T02:40:55.925Z,99464.03
2022-12-29T02:43:28.437Z,99459.50
2022-12-29T02:46:01.286Z,99447.06
2022-12-29T02:48:36.047Z,99449.75
2022-12-29T02:51:06.686Z,99454.16
2022-12-29T02:53:54.308Z,99450.59
2022-12-29T02:56:22.381Z,99433.63
2022-12-29T02:58:50.452Z,99434.47
2022-12-29T03:01:34.912Z,99434.47
2022-12-29T03:04:15.376Z,99440.72
2022-12-29T03:06:55.588Z,99434.38
2022-12-29T03:09:30.636Z,99437.06
2022-12-29T03:12:10.478Z,99423.50
2022-12-29T03:15:08.775Z,99426.06
2022-12-29T03:17:45.627Z,99412.50
2022-12-29T03:20:19.709Z,99417.78
2022-12-29T03:22:50.324Z,99416.81
2022-12-29T03:25:22.977Z,99412.19
2022-12-29T03:27:53.396Z,99406.56
2022-12-29T03:30:21.496Z,99407.28
2022-12-29T03:32:53.745Z,99421.34
2022-12-29T03:35:24.169Z,99403.28
2022-12-29T03:37:58.077Z,99418.31
2022-12-29T03:40:27.669Z,99408.28
2022-12-29T03:42:56.520Z,99409.88
2022-12-29T03:45:24.787Z,99390.94
2022-12-29T03:47:55.148Z,99393.41
2022-12-29T03:50:23.235Z,99392.44
2022-12-29T03:52:51.301Z,99394.16
2022-12-29T03:55:19.385Z,99387.78
2022-12-29T03:57:47.463Z,99391.22
2022-12-29T04:00:16.661Z,99380.34
2022-12-29T04:02:46.633Z,99395.38
2022-12-29T04:05:16.395Z,99377.53
2022-12-29T04:07:44.474Z,99378.38
2022-12-29T04:10:12.611Z,99371.16
2022-12-29T04:12:42.637Z,99355.03
2022-12-29T04:15:11.597Z,99363.97
2022-12-29T04:17:39.648Z,99355.03
2022-12-29T04:20:25.927Z,99353.22
2022-12-29T04:23:01.684Z,99359.31
2022-12-29T04:25:29.781Z,99356.53
2022-12-29T04:27:57.841Z,99348.34
2022-12-29T04:30:28.119Z,99352.63
2022-12-29T04:32:56.706Z,99343.56
2022-12-29T04:35:24.809Z,99330.13
2022-12-29T04:37:52.895Z,99329.16
2022-12-29T04:40:22.338Z,99333.53
2022-12-29T04:42:50.865Z,99344.16
2022-12-29T04:45:19.146Z,99326.19
2022-12-29T04:47:47.271Z,99318.00
2022-12-29T04:50:15.412Z,99321.56
2022-12-29T04:52:43.548Z,99311.44
2022-12-29T04:55:11.624Z,99311.31
2022-12-29T04:57:41.019Z,99311.06
2022-12-29T05:00:10.934Z,99318.13
2022-12-29T05:02:39.767Z,99305.19
2022-12-29T05:05:08.744Z,99300.53
2022-12-29T05:07:36.915Z,99303.94
2022-12-29T05:10:05.708Z,99302.97
2022-12-29T05:12:34.504Z,99305.66
2022-12-29T05:15:04.889Z,99302.00
2022-12-29T05:17:33.142Z,99293.66
2022-12-29T05:20:01.449Z,99297.94
2022-12-29T05:22:29.534Z,99300.53
2022-12-29T05:24:57.624Z,99295.88
2022-12-29T05:27:25.731Z,99287.78
2022-12-29T05:29:53.895Z,99293.91
2022-12-29T05:32:25.360Z,99300.53
2022-12-29T05:34:53.414Z,99297.19
2022-12-29T05:37:21.493Z,99287.56
2022-12-29T05:39:49.538Z,99294.03
2022-12-29T05:42:17.889Z,99293.44
2022-12-29T05:44:46.452Z,99286.47
2022-12-29T05:47:14.590Z,99292.81
2022-12-29T05:49:44.120Z,99286.59
2022-12-29T05:52:12.175Z,99291.97
2022-12-29T05:54:40.255Z,99296.50
2022-12-29T05:57:08.608Z,99295.50
2022-12-29T05:59:36.764Z,99296.28
2022-12-29T06:02:04.961Z,99307.03
2022-12-29T06:04:33.175Z,99297.97
2022-12-29T06:07:02.589Z,99303.22
2022-12-29T06:09:30.702Z,99304.22
2022-12-29T06:11:58.781Z,99305.06
2022-12-29T06:14:26.845Z,99312.28
2022-12-29T06:16:54.934Z,99306.91
2022-12-29T06:19:23.024Z,99296.28
2022-12-29T06:21:51.072Z,99309.81
2022-12-29T06:24:20.620Z,99313.47
2022-12-29T06:26:48.912Z,99306.41
2022-12-29T06:29:17.816Z,99319.13
2022-12-29T06:31:46.425Z,99307.63
2022-12-29T06:34:14.763Z,99303.97
2022-12-29T06:36:42.848Z,99299.31
2022-12-29T06:39:12.122Z,99311.66
2022-12-29T06:41:41.587Z,99303.56
2022-12-29T06:44:09.740Z,99319.50
2022-12-29T06:46:37.800Z,99323.03
2022-12-29T06:49:05.880Z,99314.97
2022-12-29T06:51:33.948Z,99312.28
2022-12-29T06:54:02.021Z,99308.72
2022-12-29T06:56:30.094Z,99319.50
2022-12-29T06:59:01.080Z,99312.28
2022-12-29T07:01:29.273Z,99311.28
2022-12-29T07:03:57.541Z,99302.25
2022-12-29T07:06:25.659Z,99300.28
2022-12-29T07:08:56.082Z,99297.47
2022-12-29T07:11:24.224Z,99303.69
2022-12-29T07:13:52.411Z,99306.38
2022-12-29T07:16:22.186Z,99303.56
2022-12-29T07:18:50.284Z,99303.44
2022-12-29T07:21:18.320Z,99298.91
2022-12-29T07:23:46.492Z,99301.50
2022-12-29T07:26:15.994Z,99309.56
2022-12-29T07:28:44.057Z,99321.19
2022-12-29T07:31:15.941Z,99321.19
2022-12-29T07:33:45.414Z,99320.19
2022-12-29T07:36:14.119Z,99334.63
2022-12-29T07:38:42.559Z,99337.19
2022-12-29T07:41:11.030Z,99347.09
2022-12-29T07:43:39.210Z,99342.56
2022-12-29T07:46:07.332Z,99353.19
2022-12-29T07:48:36.957Z,99355.75
2022-12-29T07:51:07.432Z,99362.72
2022-12-29T07:53:35.497Z,99362.59
2022-12-29T07:56:03.548Z,99364.16
2022-12-29T07:58:31.642Z,99365.91
2022-12-29T08:00:59.976Z,99374.94
2022-12-29T08:03:28.125Z,99364.31
2022-12-29T08:05:56.231Z,99359.66
2022-12-29T08:08:25.712Z,99365.03
2022-12-29T08:10:55.962Z,99374.06
2022-12-29T08:13:24.303Z,99386.56
2022-12-29T08:15:52.483Z,99386.56
2022-12-29T08:18:20.607Z,99375.78
2022-12-29T08:20:51.154Z,99394.63
2022-12-29T08:23:24.917Z,99382.91
2022-12-29T08:25:59.528Z,99390.00
2022-12-29T08:28:27.637Z,99383.63
2022-12-29T08:30:55.837Z,99383.50
2022-12-29T08:33:23.992Z,99386.91
2022-12-29T08:35:52.065Z,99382.13
2022-12-29T08:38:20.174Z,99389.47
2022-12-29T08:40:49.646Z,99373.47
2022-12-29T08:43:18.707Z,99367.09
2022-12-29T08:45:46.926Z,99379.56
2022-12-29T08:48:19.081Z,99380.44
2022-12-29T08:50:47.942Z,99381.41
2022-12-29T08:53:16.019Z,99381.53
2022-12-29T08:55:44.130Z,99375.91
2022-12-29T08:58:15.464Z,99391.31
2022-12-29T09:00:43.985Z,99384.22
2022-12-29T09:03:12.188Z,99385.22
2022-12-29T09:05:40.398Z,99392.31
2022-12-29T09:08:08.458Z,99383.38
2022-12-29T09:10:36.556Z,99394.88
2022-12-29T09:13:04.639Z,99401.94
2022-12-29T09:15:34.064Z,99416.13
2022-12-29T09:18:02.149Z,99402.94
2022-12-29T09:20:30.232Z,99401.22
2022-12-29T09:22:58.383Z,99414.94
2022-12-29T09:25:26.481Z,99407.22
2022-12-29T09:27:54.669Z,99407.47
2022-12-29T09:30:24.646Z,99423.59
2022-12-29T09:32:55.521Z,99425.94
2022-12-29T09:35:23.726Z,99413.22
2022-12-29T09:37:52.141Z,99413.97
2022-12-29T09:40:28.217Z,99419.94
2022-12-29T09:43:05.564Z,99414.44
2022-12-29T09:45:38.538Z,99417.75
2022-12-29T09:48:13.811Z,99418.81
2022-12-29T09:50:44.145Z,99429.59
2022-12-29T09:53:17.398Z,99416.13
2022-12-29T09:55:50.805Z,99415.78
2022-12-29T09:58:24.518Z,99418.09
2022-12-29T10:00:56.324Z,99424.81
2022-12-29T10:03:28.824Z,99421.16
2022-12-29T10:06:02.925Z,99407.78
2022-12-29T10:08:37.242Z,99407.78
2022-12-29T10:11:11.898Z,99402.31
2022-12-29T10:13:54.213Z,99427.38
2022-12-29T10:16:28.253Z,99406.84
2022-12-29T10:19:35.252Z,99420.03
2022-12-29T10:22:15.757Z,99413.53
2022-12-29T10:24:45.120Z,99413.41
2022-12-29T10:27:14.513Z,99407.78
2022-12-29T10:29:46.772Z,99405.06
2022-12-29T10:32:23.667Z,99408.53
2022-12-29T10:34:54.372Z,99411.09
2022-12-29T10:37:34.123Z,99413.25
2022-12-29T10:40:05.034Z,99413.38
2022-12-29T10:42:38.779Z,99420.09
2022-12-29T10:45:08.433Z,99418.50
2022-12-29T10:47:40.670Z,99415.56
2022-12-29T10:50:09.052Z,99429.03
2022-12-29T10:52:40.204Z,99391.47
2022-12-29T10:55:14.491Z,99407.47
2022-12-29T10:57:45.788Z,99410.44
2022-12-29T11:00:17.466Z,99406.88
2022-12-29T11:02:58.766Z,99400.38
2022-12-29T11:05:32.657Z,99408.47
2022-12-29T11:08:04.008Z,99404.19
2022-12-29T11:10:37.575Z,99404.31
2022-12-29T11:13:13.005Z,99405.31
2022-12-29T11:15:42.759Z,99401.19
2022-12-29T11:18:22.458Z,99413.91
2022-12-29T11:20:51.668Z,99411.72
2022-12-29T11:23:31.830Z,99409.63
2022-12-29T11:26:22.039Z,99404.88
2022-12-29T11:29:22.107Z,99404.38
2022-12-29T11:31:51.753Z,99412.72
2022-12-29T11:34:21.332Z,99405.63
2022-12-29T11:36:50.597Z,99412.25
2022-12-29T11:39:40.067Z,99406.13
2022-12-29T11:42:14.524Z,99406.25
2022-12-29T11:44:45.950Z,99409.06
2022-12-29T11:47:22.136Z,99410.75
2022-12-29T11:49:53.185Z,99411.75
2022-12-29T11:52:25.055Z,99412.00
2022-12-29T11:54:58.656Z,99416.41
2022-12-29T11:57:27.389Z,99409.06
2022-12-29T11:59:57.017Z,99405.28
2022-12-29T12:02:44.670Z,99416.66
2022-12-29T12:05:22.391Z,99403.06
2022-12-29T12:07:54.256Z,99414.44
2022-12-29T12:10:28.712Z,99419.81
2022-12-29T12:13:04.272Z,99403.19
2022-12-29T12:15:45.327Z,99408.31
2022-12-29T12:18:20.529Z,99414.22
2022-12-29T12:20:52.117Z,99417.16
2022-12-29T12:23:41.746Z,99402.22
2022-12-29T12:26:15.046Z,99403.06
2022-12-29T12:28:51.038Z,99429.84
2022-12-29T12:31:28.557Z,99416.28
2022-12-29T12:34:01.704Z,99424.34
2022-12-29T12:36:46.386Z,99424.97
2022-12-29T12:39:22.774Z,99426.28
2022-12-29T12:41:58.955Z,99414.47
2022-12-29T12:44:31.233Z,99419.44
2022-12-29T12:47:27.861Z,99432.16
2022-12-29T12:50:21.340Z,99437.19
2022-12-29T12:53:04.143Z,99429.44
2022-12-29T12:55:56.637Z,99428.84
2022-12-29T12:58:34.342Z,99446.28
2022-12-29T13:01:14.014Z,99443.09
2022-12-29T13:03:54.350Z,99457.88
2022-12-29T13:06:30.625Z,99458.34
2022-12-29T13:09:20.129Z,99464.94
2022-12-29T13:11:58.107Z,99454.63
2022-12-29T13:14:37.128Z,99463.91
2022-12-29T13:17:10.421Z,99468.78
2022-12-29T13:19:43.233Z,99480.72
2022-12-29T13:22:16.930Z,99474.72
2022-12-29T13:24:53.177Z,99488.50
2022-12-29T13:27:30.793Z,99485.28
2022-12-29T13:30:10.762Z,99501.59
2022-12-29T13:32:51.586Z,99510.88
2022-12-29T13:35:40.319Z,99512.81
2022-12-29T13:38:14.933Z,99513.88
2022-12-29T13:40:47.482Z,99522.78
2022-12-29T13:43:16.441Z,99522.91
2022-12-29T13:45:47.338Z,99524.63
2022-12-29T13:48:18.955Z,99523.56
2022-12-29T13:50:50.817Z,99538.69
2022-12-29T13:53:25.774Z,99544.81
2022-12-29T13:55:57.407Z,99540.41
2022-12-29T13:58:30.221Z,99546.75
2022-12-29T14:01:05.053Z,99549.56
2022-12-29T14:03:51.452Z,99536.31
2022-12-29T14:06:24.438Z,99562.31
2022-12-29T14:08:54.333Z,99571.34
2022-12-29T14:11:26.762Z,99565.22
2022-12-29T14:13:55.066Z,99566.19
2022-12-29T14:16:35.624Z,99582.53
2022-12-29T14:19:12.854Z,99583.50
2022-12-29T14:21:42.295Z,99598.97
2022-12-29T14:24:44.482Z,99602.63
2022-12-29T14:27:45.515Z,99607.13
2022-12-29T14:30:51.202Z,99613.56
2022-12-29T14:33:21.336Z,99621.50
2022-12-29T14:35:53.222Z,99640.31
2022-12-29T14:38:29.768Z,99644.47
2022-12-29T14:41:21.144Z,99630.19
2022-12-29T14:44:19.736Z,99638.16
2022-12-29T14:46:50.908Z,99640.84
2022-12-29T14:49:24.104Z,99649.75
2022-12-29T14:51:53.600Z,99653.19
2022-12-29T14:54:52.721Z,99667.47
2022-12-29T14:57:29.904Z,99670.91
2022-12-29T15:00:03.873Z,99681.63
2022-12-29T15:02:39.356Z,99663.81
2022-12-29T15:05:25.208Z,99673.59
2022-12-29T15:07:54.199Z,99668.22
2022-12-29T15:10:23.917Z,99668.22
2022-12-29T15:12:54.827Z,99675.41
2022-12-29T15:15:25.122Z,99677.25
2022-12-29T15:17:53.589Z,99666.72
2022-12-29T15:20:28.736Z,99683.59
2022-12-29T15:22:59.058Z,99697.97
2022-12-29T15:25:28.157Z,99700.78
2022-12-29T15:27:59.391Z,99704.38
2022-12-29T15:30:27.465Z,99700.09
2022-12-29T15:32:55.787Z,99705.81
2022-12-29T15:35:34.571Z,99725.66
2022-12-29T15:38:14.255Z,99720.50
2022-12-29T15:40:45.293Z,99738.53
2022-12-29T15:43:22.515Z,99736.81
2022-12-29T15:45:51.535Z,99737.78
2022-12-29T15:48:22.326Z,99756.78
2022-12-29T15:50:52.726Z,99760.53
2022-12-29T15:53:29.207Z,99756.25
2022-12-29T15:56:03.177Z,99767.91
2022-12-29T15:58:32.928Z,99769.00
2022-12-29T16:01:02.405Z,99763.75
2022-12-29T16:03:34.679Z,99772.88
2022-12-29T16:06:12.803Z,99763.31
2022-12-29T16:08:42.121Z,99767.81
2022-12-29T16:11:24.466Z,99768.00
2022-12-29T16:13:54.473Z,99776.25
2022-12-29T16:16:24.119Z,99786.25
2022-12-29T16:18:57.368Z,99787.09
2022-12-29T16:21:30.261Z,99791.94
2022-12-29T16:24:03.388Z,99795.66
2022-12-29T16:26:31.584Z,99805.63
2022-12-29T16:29:00.983Z,99797.69
2022-12-29T16:31:36.092Z,99806.81
2022-12-29T16:34:14.865Z,99800.69
2022-12-29T16:36:55.426Z,99798.19
2022-12-29T16:39:29.327Z,99801.94
2022-12-29T16:41:57.933Z,99800.53
2022-12-29T16:44:28.453Z,99812.22
2022-12-29T16:47:18.717Z,99804.16
2022-12-29T16:49:52.302Z,99813.28
2022-12-29T16:52:25.149Z,99817.78
2022-12-29T16:54:56.660Z,99820.63
2022-12-29T16:57:30.373Z,99816.34
2022-12-29T17:00:01.414Z,99829.09
2022-12-29T17:02:31.611Z,99823.94
2022-12-29T17:04:59.865Z,99836.56
2022-12-29T17:07:30.142Z,99828.94
2022-12-29T17:09:58.248Z,99838.88
2022-12-29T17:12:28.120Z,99851.53
2022-12-29T17:14:57.626Z,99844.44
2022-12-29T17:17:32.994Z,99851.69
2022-12-29T17:20:04.098Z,99861.41
2022-12-29T17:22:33.937Z,99856.91
2022-12-29T17:25:03.734Z,99860.22
2022-12-29T17:27:35.372Z,99867.41
2022-12-29T17:30:06.058Z,99868.28
2022-12-29T17:32:34.266Z,99866.44
2022-12-29T17:35:02.365Z,99867.41
2022-12-29T17:37:36.938Z,99869.13
2022-12-29T17:40:07.339Z,99869.03
2022-12-29T17:42:38.701Z,99872.38
2022-12-29T17:45:07.683Z,99861.47
2022-12-29T17:47:35.747Z,99871.13
2022-12-29T17:50:03.953Z,99873.50
2022-12-29T17:52:33.836Z,99863.53
2022-12-29T17:55:03.464Z,99866.97
2022-12-29T17:57:31.528Z,99874.84
2022-12-29T17:59:59.590Z,99872.06
2022-12-29T18:02:30.677Z,99886.22
2022-12-29T18:04:59.791Z,99887.84
2022-12-29T18:07:34.037Z,99891.38
2022-12-29T18:10:05.719Z,99886.88
2022-12-29T18:12:38.878Z,99888.59
2022-12-29T18:15:08.715Z,99894.72
2022-12-29T18:17:37.543Z,99888.44
2022-12-29T18:20:06.315Z,99886.69
2022-12-29T18:22:34.411Z,99876.75
2022-12-29T18:25:03.084Z,99882.84
2022-12-29T18:27:32.521Z,99885.66
2022-12-29T18:30:00.547Z,99888.44
2022-12-29T18:32:28.651Z,99894.66
2022-12-29T18:34:56.695Z,99898.38
2022-12-29T18:37:24.757Z,99893.84
2022-12-29T18:39:57.202Z,99892.25
2022-12-29T18:42:25.306Z,99894.94
2022-12-29T18:44:55.432Z,99895.03
2022-12-29T18:47:23.889Z,99890.63
2022-12-29T18:49:53.088Z,99889.78
2022-12-29T18:52:21.131Z,99896.09
2022-12-29T18:54:49.233Z,99903.19
2022-12-29T18:57:17.876Z,99900.59
2022-12-29T18:59:45.998Z,99888.06
2022-12-29T19:02:18.562Z,99893.50
2022-12-29T19:04:51.348Z,99889.97
2022-12-29T19:07:21.112Z,99894.47
2022-12-29T19:09:49.204Z,99882.13
2022-12-29T19:12:17.310Z,99885.56
2022-12-29T19:14:45.518Z,99888.25
2022-12-29T19:17:14.172Z,99895.44
2022-12-29T19:19:43.822Z,99896.31
2022-12-29T19:22:11.913Z,99884.72
2022-12-29T19:24:39.990Z,99884.72
2022-12-29T19:27:08.124Z,99889.13
2022-12-29T19:29:36.272Z,99882.88
2022-12-29T19:32:04.379Z,99882.88
2022-12-29T19:34:32.435Z,99879.25
2022-12-29T19:37:02.191Z,99872.06
2022-12-29T19:39:30.398Z,99880.00
2022-12-29T19:42:03.532Z,99874.63
2022-12-29T19:44:33.479Z,99880.88
2022-12-29T19:47:01.597Z,99881.72
2022-12-29T19:49:30.460Z,99882.69
2022-12-29T19:51:58.744Z,99886.31
2022-12-29T19:54:28.217Z,99884.63
2022-12-29T19:56:56.277Z,99886.44
2022-12-29T19:59:24.420Z,99885.56
2022-12-29T20:01:53.752Z,99897.16
2022-12-29T20:04:22.004Z,99903.38
2022-12-29T20:06:50.089Z,99903.38
2022-12-29T20:09:18.169Z,99905.09
2022-12-29T20:11:47.636Z,99907.69
2022-12-29T20:14:15.689Z,99920.03
2022-12-29T20:17:09.062Z,99910.25
2022-12-29T20:19:31.841Z,99915.63
2022-12-29T20:21:59.927Z,99920.97
2022-12-29T20:24:28.085Z,99923.56
2022-12-29T20:26:58.008Z,99919.06
2022-12-29T20:29:26.652Z,99915.63
2022-12-29T20:31:54.985Z,99911.22
2022-12-29T20:34:23.112Z,99902.41
2022-12-29T20:36:51.328Z,99912.38
2022-12-29T20:39:21.018Z,99921.38
2022-12-29T20:41:49.727Z,99911.44
2022-12-29T20:44:19.179Z,99909.88
2022-12-29T20:46:47.277Z,99907.19
2022-12-29T20:49:15.414Z,99910.84
2022-12-29T20:52:06.075Z,99909.13
2022-12-29T20:54:38.690Z,99911.91
2022-12-29T20:57:07.523Z,99918.31
2022-12-29T20:59:37.065Z,99921.09
2022-12-29T21:02:05.356Z,99928.28
2022-12-29T21:04:57.732Z,99920.25
2022-12-29T21:07:21.589Z,99928.28
2022-12-29T21:09:49.694Z,99939.00
2022-12-29T21:12:17.763Z,99939.78
2022-12-29T21:14:47.183Z,99943.41
2022-12-29T21:17:15.312Z,99943.41
2022-12-29T21:19:43.358Z,99934.50
2022-12-29T21:22:11.451Z,99935.47
2022-12-29T21:24:39.588Z,99936.44
2022-12-29T21:27:07.779Z,99941.03
2022-12-29T21:29:35.836Z,99948.97
2022-12-29T21:32:06.914Z,99951.66
2022-12-29T21:34:35.504Z,99947.25
2022-12-29T21:37:03.586Z,99951.75
2022-12-29T21:39:31.646Z,99953.53
2022-12-29T21:42:00.358Z,99952.69
2022-12-29T21:44:46.065Z,99953.66
2022-12-29T21:47:15.575Z,99957.50
2022-12-29T21:49:43.628Z,99958.44
2022-12-29T21:52:11.696Z,99958.34
2022-12-29T21:54:59.488Z,99956.63
2022-12-29T21:57:45.193Z,99965.53
2022-12-29T22:00:31.489Z,99974.44
2022-12-29T22:03:23.167Z,99962.66
2022-12-29T22:06:09.499Z,99972.50
2022-12-29T22:08:55.328Z,99951.06
2022-12-29T22:11:40.966Z,99968.69
2022-12-29T22:14:09.068Z,99962.47
2022-12-29T22:16:37.198Z,99966.03
2022-12-29T22:19:07.888Z,99962.38
2022-12-29T22:21:35.964Z,99967.63
2022-12-29T22:24:04.022Z,99962.94
2022-12-29T22:26:32.096Z,99972.72
2022-12-29T22:29:00.286Z,99964.66
2022-12-29T22:31:29.874Z,99975.38
2022-12-29T22:33:58.963Z,99978.16
2022-12-29T22:36:29.296Z,99976.44
2022-12-29T22:38:57.536Z,99982.66
2022-12-29T22:41:25.927Z,99990.72
2022-12-29T22:43:53.962Z,99989.84
2022-12-29T22:46:22.305Z,99987.28
2022-12-29T22:48:50.512Z,99990.91
2022-12-29T22:51:18.592Z,99998.97
2022-12-29T22:53:50.818Z,99995.41
2022-12-29T22:56:19.502Z,99999.81
2022-12-29T22:58:49.461Z,99995.50
2022-12-29T23:01:19.141Z,100003.63
2022-12-29T23:03:47.381Z,100005.75
2022-12-29T23:06:18.187Z,100010.34
2022-12-29T23:08:47.324Z,100018.66
2022-12-29T23:11:17.268Z,100012.50
2022-12-29T23:13:46.187Z,100015.38
2022-12-29T23:16:15.026Z,100020.84
2022-12-29T23:18:43.693Z,100028.03
2022-12-29T23:21:11.903Z,100030.69
2022-12-29T23:23:56.165Z,100024.56
2022-12-29T23:26:27.285Z,100030.03
2022-12-29T23:28:59.972Z,100035.50
2022-12-29T23:31:28.665Z,100034.69
2022-12-29T23:33:58.369Z,100040.06
2022-12-29T23:36:26.791Z,100036.59
2022-12-29T23:38:54.905Z,100043.78
2022-12-29T23:41:23.081Z,100055.56
2022-12-29T23:43:52.691Z,100057.56
2022-12-29T23:46:22.621Z,100058.63
2022-12-29T23:48:50.747Z,100068.53
2022-12-29T23:51:19.290Z,100066.72
2022-12-29T23:53:47.659Z,100067.56
2022-12-29T23:56:18.163Z,100064.84
2022-12-29T23:58:46.471Z,100074.69
